Vernon Hill, VA (24597)

12:51 PM EDT on May 25, 2015 (GMT -0400)
Union Community Near South Boston, Va | | Change Station
CLOSE
Current Station
Personal Weather Station
Location: South Boston, VA
Elevation: 440 ft
Nearby Weather Stations

Elev 440 ft 36.70 °N, 79.00 °W | Updated 10 minutes ago

Clear
Clear
79.2 °F
Feels Like 81 °F
N
12.0
Wind Variable Wind from SE
Gusts 16.0 mph

Today
High -- | Low -- °F
--% Chance of Precip.
Yesterday
High -- | Low -- °F
Precip. -- in
6:02 AM 8:24 PM
Waxing Crescent, 50% visible
Pressure 30.30 in
Visibility 10.0 miles
Clouds Clear
Heat Index 81 °F
Dew Point 62 °F
Humidity 56%
Rainfall 0.00 in
Snow Depth Not available.
UV 11 out of 12
Pollen 8.10 out of 12
Air Quality Not available.
Flu Activity No Activity
METAR KDAN 251553Z AUTO VRB06KT 10SM CLR 26/13 A3032 RMK AO2 SLP258 T02560128

More Conditions Fewer Conditions

Pressure 30.30 in
Visibility 10.0 miles
Clouds Clear
Heat Index 81 °F
Dew Point 62 °F
Humidity 56%
Rainfall 0.00 in
Snow Depth Not available.
UV 11 out of 12
Pollen 8.10 out of 12
Air Quality Not available.
Flu Activity No Activity
METAR KDAN 251553Z AUTO VRB06KT 10SM CLR 26/13 A3032 RMK AO2 SLP258 T02560128

More Conditions Fewer Conditions

10-Day Weather Forecast

Almanac

Astronomy

May. 25, 2015 Rise Set
Actual Time
Civil Twilight
Nautical Twilight
Astronomical Twilight
Moon
Length of Visible Light
Length of Day
Tomorrow will be .
, % of the Moon is Illuminated

Today's Extremes

State Highs State Lows

Community

WunderPhotos

Upload Photos

1,824,057 photos uploaded!

WunderBlogs® & News

Nearby

Air Quality

  Air Quality AQ Index Pollutant
Not available.

Snow Depth

Station Depth Elevation

Earthquake Activity

City Distance Mag. Time & Date
Minimum magnitude displayed is 2.5.

Coastal Water Temperatures

Place Temperature

Stations

Nearby Weather Stations

Station Location Temp. Windchill Dew Point Humidity Wind Precip. Elev Updated Type